Time;durP1;ratioP1;P1;durP2;ratioP2;P2;SDS_P1;SDS_P2;PMS_P1;PMS_P2;Temp;Humidity;BMP_temperature;BMP_pressure;BME280_temperature;BME280_humidity;BME280_pressure;Samples;Min_cycle;Max_cycle;Signal;HPM_P1;HPM_P2
2022/05/13 00:02:06;;;;;;;14.07;12.73;;;;;;;;;;5044807;28;20654;-74
2022/05/13 00:04:33;;;;;;;15.23;14.02;;;;;;;;;;5057753;28;20299;-74
2022/05/13 00:07:00;;;;;;;14.80;13.50;;;;;;;;;;5051160;28;20311;-74
2022/05/13 00:09:56;;;;;;;15.45;14.15;;;;;;;;;;5052594;28;20220;-74
2022/05/13 00:12:16;;;;;;;16.33;14.80;;;;;;;;;;5051429;28;20200;-74
2022/05/13 00:14:43;;;;;;;16.60;15.15;;;;;;;;;;5055159;28;20248;-74
2022/05/13 00:17:11;;;;;;;16.30;14.75;;;;;;;;;;5064169;28;20299;-74
2022/05/13 00:19:38;;;;;;;16.67;14.82;;;;;;;;;;5074730;28;20200;-74
2022/05/13 00:22:05;;;;;;;16.83;15.23;;;;;;;;;;5063219;28;20212;-74
2022/05/13 00:24:32;;;;;;;16.60;15.10;;;;;;;;;;5056947;28;20201;-74
2022/05/13 00:27:00;;;;;;;16.83;15.43;;;;;;;;;;5066234;28;20316;-74
2022/05/13 00:29:28;;;;;;;16.77;15.27;;;;;;;;;;5060112;28;20311;-74
2022/05/13 00:31:55;;;;;;;15.18;13.88;;;;;;;;;;5052728;28;20206;-74
2022/05/13 00:34:24;;;;;;;15.18;13.82;;;;;;;;;;5068102;28;20204;-74
2022/05/13 00:36:52;;;;;;;14.73;13.38;;;;;;;;;;5055144;28;20304;-74
2022/05/13 00:39:19;;;;;;;15.00;13.65;;;;;;;;;;5055440;28;20295;-74
2022/05/13 00:41:47;;;;;;;14.45;13.25;;;;;;;;;;5057915;28;20196;-74
2022/05/13 00:44:14;;;;;;;15.50;14.07;;;;;;;;;;5057862;28;20205;-74
2022/05/13 00:46:42;;;;;;;15.45;14.05;;;;;;;;;;5067348;28;20685;-74
2022/05/13 00:49:11;;;;;;;15.10;13.80;;;;;;;;;;5074418;28;20231;-74
2022/05/13 00:51:40;;;;;;;15.27;13.77;;;;;;;;;;5065692;28;20201;-74
2022/05/13 00:54:08;;;;;;;13.90;12.70;;;;;;;;;;5060324;28;20216;-74
2022/05/13 00:56:36;;;;;;;15.57;14.27;;;;;;;;;;5062232;28;20224;-74
2022/05/13 00:59:04;;;;;;;14.88;13.60;;;;;;;;;;5054909;28;20296;-74
2022/05/13 01:01:33;;;;;;;14.88;13.30;;;;;;;;;;5054529;28;20198;-74
2022/05/13 01:04:02;;;;;;;14.30;13.00;;;;;;;;;;5050623;28;20205;-74
2022/05/13 01:06:30;;;;;;;12.55;11.35;;;;;;;;;;5054500;28;20204;-74
2022/05/13 01:08:57;;;;;;;13.02;11.80;;;;;;;;;;5054572;28;20220;-74
2022/05/13 01:11:25;;;;;;;12.82;11.73;;;;;;;;;;5057233;28;20204;-74
2022/05/13 01:13:55;;;;;;;12.90;11.75;;;;;;;;;;5063157;28;20209;-74
2022/05/13 01:16:22;;;;;;;13.10;11.90;;;;;;;;;;5066496;28;20200;-74
2022/05/13 01:18:48;;;;;;;13.90;12.68;;;;;;;;;;5057967;28;20715;-74
2022/05/13 01:21:21;;;;;;;12.65;11.52;;;;;;;;;;5060392;28;20196;-74
2022/05/13 01:23:50;;;;;;;14.40;13.10;;;;;;;;;;5053531;28;20303;-73
2022/05/13 01:26:22;;;;;;;15.25;13.73;;;;;;;;;;5054234;28;20201;-74
2022/05/13 01:28:51;;;;;;;13.38;12.27;;;;;;;;;;5054237;28;20229;-74
2022/05/13 01:31:23;;;;;;;13.07;11.85;;;;;;;;;;5060641;28;20284;-74
2022/05/13 01:33:50;;;;;;;12.18;10.85;;;;;;;;;;5052742;28;20244;-73
2022/05/13 01:36:17;;;;;;;9.75;8.77;;;;;;;;;;5064515;28;20200;-74
2022/05/13 01:38:44;;;;;;;10.90;8.55;;;;;;;;;;5069385;28;20223;-73
2022/05/13 01:41:14;;;;;;;10.45;9.45;;;;;;;;;;5054008;28;20206;-74
2022/05/13 01:43:42;;;;;;;11.18;10.02;;;;;;;;;;5064116;28;20272;-74
2022/05/13 01:46:10;;;;;;;12.77;11.57;;;;;;;;;;5062454;28;20201;-73
2022/05/13 01:48:37;;;;;;;13.57;12.27;;;;;;;;;;5081177;22;20297;-74
2022/05/13 01:51:04;;;;;;;15.55;12.75;;;;;;;;;;5052654;28;20296;-73
2022/05/13 01:53:32;;;;;;;13.68;12.30;;;;;;;;;;5053022;28;20272;-72
2022/05/13 01:55:59;;;;;;;14.63;13.23;;;;;;;;;;5052640;28;20237;-74
2022/05/13 01:58:28;;;;;;;14.10;12.90;;;;;;;;;;5053112;28;20284;-74
2022/05/13 02:00:56;;;;;;;15.52;14.13;;;;;;;;;;5052794;28;20296;-74
2022/05/13 02:06:09;;;;;;;16.48;14.85;;;;;;;;;;5052854;28;20208;-73
2022/05/13 02:08:37;;;;;;;16.35;14.68;;;;;;;;;;5046875;28;20320;-73
2022/05/13 02:11:04;;;;;;;16.42;14.68;;;;;;;;;;5045835;28;20288;-73
2022/05/13 02:13:33;;;;;;;15.82;14.20;;;;;;;;;;5052444;28;20292;-73
2022/05/13 02:16:00;;;;;;;14.18;12.85;;;;;;;;;;5045420;28;20286;-73
2022/05/13 02:18:28;;;;;;;14.95;13.32;;;;;;;;;;5045812;28;20315;-73
2022/05/13 02:20:55;;;;;;;16.45;13.93;;;;;;;;;;5052408;28;20216;-73
2022/05/13 02:23:23;;;;;;;16.90;14.73;;;;;;;;;;5052274;28;20598;-73
2022/05/13 02:25:50;;;;;;;14.95;13.45;;;;;;;;;;5051630;28;20288;-73
2022/05/13 02:28:17;;;;;;;15.48;13.80;;;;;;;;;;5051996;28;20221;-73
2022/05/13 02:30:46;;;;;;;16.15;14.50;;;;;;;;;;5052125;28;20764;-73
2022/05/13 02:33:14;;;;;;;17.05;15.45;;;;;;;;;;5051149;28;20292;-73
2022/05/13 02:35:41;;;;;;;17.85;16.13;;;;;;;;;;5051240;28;20208;-73
2022/05/13 02:38:08;;;;;;;17.65;15.75;;;;;;;;;;5052273;28;20229;-73
2022/05/13 02:43:20;;;;;;;18.00;16.20;;;;;;;;;;5047429;28;20223;-73
2022/05/13 02:45:48;;;;;;;17.98;16.10;;;;;;;;;;5051199;28;20660;-73
2022/05/13 02:48:16;;;;;;;17.80;15.98;;;;;;;;;;5051614;28;20740;-73
2022/05/13 02:50:43;;;;;;;18.40;16.50;;;;;;;;;;5051642;28;20245;-73
2022/05/13 02:53:11;;;;;;;17.55;15.70;;;;;;;;;;5051816;28;20303;-73
2022/05/13 02:55:38;;;;;;;18.65;16.70;;;;;;;;;;5051148;28;20244;-73
2022/05/13 02:58:05;;;;;;;20.08;16.42;;;;;;;;;;5051620;28;20233;-73
2022/05/13 03:00:32;;;;;;;19.55;17.40;;;;;;;;;;5051696;28;20205;-73
2022/05/13 03:03:01;;;;;;;20.75;16.88;;;;;;;;;;5051510;28;20300;-73
2022/05/13 03:05:29;;;;;;;21.25;17.52;;;;;;;;;;5051241;28;20296;-73
2022/05/13 03:07:57;;;;;;;22.75;17.80;;;;;;;;;;5051045;28;20228;-73
2022/05/13 03:10:24;;;;;;;22.00;17.63;;;;;;;;;;5051371;28;20221;-73
2022/05/13 03:12:51;;;;;;;22.05;17.73;;;;;;;;;;5051514;28;20208;-73
2022/05/13 03:15:18;;;;;;;20.15;17.40;;;;;;;;;;5050563;28;20289;-74
2022/05/13 03:17:46;;;;;;;19.25;16.92;;;;;;;;;;5051331;28;20225;-73
2022/05/13 03:20:17;;;;;;;24.05;18.60;;;;;;;;;;5051052;28;20201;-73
2022/05/13 03:22:45;;;;;;;21.35;18.23;;;;;;;;;;5051311;28;20232;-73
2022/05/13 03:25:13;;;;;;;23.27;18.38;;;;;;;;;;5050435;28;20201;-73
2022/05/13 03:27:40;;;;;;;21.98;18.40;;;;;;;;;;5051417;28;20323;-74
2022/05/13 03:30:08;;;;;;;21.73;18.83;;;;;;;;;;5050854;28;20282;-73
2022/05/13 03:32:35;;;;;;;20.08;17.80;;;;;;;;;;5051253;28;20213;-74
2022/05/13 03:35:02;;;;;;;20.10;17.67;;;;;;;;;;5050370;28;20201;-74
2022/05/13 03:37:31;;;;;;;19.65;17.60;;;;;;;;;;5050412;28;20582;-74
2022/05/13 03:39:58;;;;;;;21.90;17.55;;;;;;;;;;5050836;28;20232;-74
2022/05/13 03:42:25;;;;;;;19.73;17.63;;;;;;;;;;5051143;28;20205;-74
2022/05/13 03:44:53;;;;;;;20.08;18.15;;;;;;;;;;5050237;28;20205;-74
2022/05/13 03:47:20;;;;;;;21.40;17.35;;;;;;;;;;5050923;28;20717;-74
2022/05/13 03:49:47;;;;;;;20.65;17.05;;;;;;;;;;5051037;28;20225;-74
2022/05/13 03:52:14;;;;;;;20.65;16.38;;;;;;;;;;5051383;28;20224;-74
2022/05/13 03:54:44;;;;;;;19.65;17.27;;;;;;;;;;5047936;28;20224;-74
2022/05/13 03:57:11;;;;;;;19.30;17.23;;;;;;;;;;5051024;28;20320;-74
2022/05/13 03:59:40;;;;;;;20.15;18.05;;;;;;;;;;5050737;28;20202;-74
2022/05/13 04:02:07;;;;;;;21.48;16.45;;;;;;;;;;5051404;28;20213;-75
2022/05/13 04:08:56;;;;;;;19.50;17.48;;;;;;;;;;5047278;28;20225;-75
2022/05/13 04:10:10;;;;;;;19.40;16.90;;;;;;;;;;5050696;28;20283;-74
2022/05/13 04:18:07;;;;;;;18.52;16.73;;;;;;;;;;5049461;28;20303;-76
2022/05/13 04:20:35;;;;;;;19.85;17.75;;;;;;;;;;5050379;28;20251;-80
2022/05/13 04:23:03;;;;;;;18.70;16.80;;;;;;;;;;5045173;28;20209;-76
2022/05/13 04:25:32;;;;;;;18.23;16.45;;;;;;;;;;5048376;28;20197;-76
2022/05/13 04:27:59;;;;;;;18.42;16.52;;;;;;;;;;5051753;28;20246;-76
2022/05/13 04:30:26;;;;;;;18.23;16.40;;;;;;;;;;5039844;28;20220;-77
2022/05/13 04:32:54;;;;;;;19.40;17.40;;;;;;;;;;5051712;28;20251;-77
2022/05/13 04:35:21;;;;;;;18.65;16.65;;;;;;;;;;5049332;28;20205;-77
2022/05/13 04:37:48;;;;;;;19.88;17.98;;;;;;;;;;5046765;28;20217;-77
2022/05/13 04:40:15;;;;;;;20.73;18.50;;;;;;;;;;5049136;28;20201;-78
2022/05/13 04:42:49;;;;;;;20.15;18.15;;;;;;;;;;5048946;28;20232;-76
2022/05/13 04:45:19;;;;;;;18.85;16.95;;;;;;;;;;5047376;28;20204;-81
2022/05/13 04:50:31;;;;;;;19.80;17.63;;;;;;;;;;5045157;28;20224;-77
2022/05/13 04:52:58;;;;;;;18.33;16.63;;;;;;;;;;5053499;28;20231;-78
2022/05/13 04:55:26;;;;;;;17.27;15.57;;;;;;;;;;5057914;28;20281;-77
2022/05/13 04:57:55;;;;;;;15.82;14.27;;;;;;;;;;5049896;28;20235;-77
2022/05/13 05:00:22;;;;;;;16.08;14.38;;;;;;;;;;5049382;28;20232;-78
2022/05/13 05:02:49;;;;;;;15.77;14.38;;;;;;;;;;5048752;28;20219;-78
2022/05/13 05:05:16;;;;;;;15.30;14.00;;;;;;;;;;5048334;28;20292;-77
2022/05/13 05:07:44;;;;;;;14.85;13.27;;;;;;;;;;5049779;28;20307;-77
2022/05/13 05:10:11;;;;;;;14.45;13.05;;;;;;;;;;5056262;28;20217;-78
2022/05/13 05:12:39;;;;;;;17.13;13.65;;;;;;;;;;5055982;28;20204;-77
2022/05/13 05:15:09;;;;;;;14.98;13.57;;;;;;;;;;5054902;28;20205;-78
2022/05/13 05:17:36;;;;;;;14.57;13.27;;;;;;;;;;5050626;28;20225;-78
2022/05/13 05:20:05;;;;;;;12.75;11.55;;;;;;;;;;5047957;28;20201;-77
2022/05/13 05:22:32;;;;;;;13.63;12.48;;;;;;;;;;5047372;28;20213;-77
2022/05/13 05:24:59;;;;;;;14.43;13.00;;;;;;;;;;5042698;28;20256;-83
2022/05/13 05:27:27;;;;;;;11.13;10.07;;;;;;;;;;5059361;28;20324;-76
2022/05/13 05:29:54;;;;;;;11.32;10.32;;;;;;;;;;5046187;28;20264;-77
2022/05/13 05:32:23;;;;;;;12.10;10.82;;;;;;;;;;5045447;28;20643;-77
2022/05/13 05:34:50;;;;;;;10.25;9.30;;;;;;;;;;5045830;28;20204;-77
2022/05/13 05:37:17;;;;;;;12.10;11.07;;;;;;;;;;5046180;28;20217;-77
2022/05/13 05:39:44;;;;;;;12.25;11.15;;;;;;;;;;5050398;28;20296;-77
2022/05/13 05:42:11;;;;;;;10.35;9.32;;;;;;;;;;5052552;28;20312;-77
2022/05/13 05:44:39;;;;;;;9.60;8.70;;;;;;;;;;5048582;28;20292;-77
2022/05/13 05:47:06;;;;;;;9.02;8.10;;;;;;;;;;5052464;28;20215;-76
2022/05/13 05:49:35;;;;;;;7.95;7.00;;;;;;;;;;5049559;28;22196;-81
2022/05/13 05:52:02;;;;;;;7.25;6.40;;;;;;;;;;5054839;28;20304;-81
2022/05/13 05:57:14;;;;;;;7.95;6.15;;;;;;;;;;5053030;28;20236;-77
2022/05/13 05:59:42;;;;;;;6.90;5.90;;;;;;;;;;5046544;28;20276;-75
2022/05/13 06:02:09;;;;;;;7.97;5.90;;;;;;;;;;5044844;28;20209;-78
2022/05/13 06:04:38;;;;;;;7.13;5.32;;;;;;;;;;5050290;28;20233;-75
2022/05/13 06:07:06;;;;;;;6.00;5.00;;;;;;;;;;5052346;28;20276;-76
2022/05/13 06:09:33;;;;;;;8.10;4.72;;;;;;;;;;5052133;28;20216;-76
2022/05/13 06:12:01;;;;;;;9.27;5.70;;;;;;;;;;5052921;28;20292;-76
2022/05/13 06:14:28;;;;;;;8.73;5.28;;;;;;;;;;5052137;28;20619;-76
2022/05/13 06:16:55;;;;;;;7.28;5.50;;;;;;;;;;5053281;28;20323;-76
2022/05/13 06:19:23;;;;;;;6.25;5.40;;;;;;;;;;5050268;28;20255;-77
2022/05/13 06:21:51;;;;;;;6.40;4.47;;;;;;;;;;5052562;28;20273;-76
2022/05/13 06:24:19;;;;;;;7.75;4.80;;;;;;;;;;5051689;28;20219;-76
2022/05/13 06:26:48;;;;;;;8.82;5.05;;;;;;;;;;5052430;28;20323;-76
2022/05/13 06:29:15;;;;;;;7.75;4.68;;;;;;;;;;5044993;28;20208;-76
2022/05/13 06:31:42;;;;;;;8.50;4.43;;;;;;;;;;5050337;28;20308;-76
2022/05/13 06:34:10;;;;;;;6.30;4.82;;;;;;;;;;5051494;28;20215;-77
2022/05/13 06:36:38;;;;;;;6.20;4.53;;;;;;;;;;5051536;28;20328;-77
2022/05/13 06:39:08;;;;;;;5.95;4.10;;;;;;;;;;5051696;28;20229;-76
2022/05/13 06:41:38;;;;;;;6.65;4.40;;;;;;;;;;5053233;28;20232;-76
2022/05/13 06:44:06;;;;;;;5.65;4.28;;;;;;;;;;5051098;28;20280;-76
2022/05/13 06:46:35;;;;;;;7.10;4.38;;;;;;;;;;5050300;28;20671;-76
2022/05/13 06:49:04;;;;;;;7.28;4.03;;;;;;;;;;5048563;28;20252;-77
2022/05/13 06:51:31;;;;;;;7.20;4.28;;;;;;;;;;5042955;28;20308;-77
2022/05/13 06:54:03;;;;;;;6.28;3.88;;;;;;;;;;5047725;28;20715;-77
2022/05/13 06:56:32;;;;;;;5.65;3.95;;;;;;;;;;5050843;28;20201;-76
2022/05/13 06:59:00;;;;;;;5.28;3.80;;;;;;;;;;5054457;28;20236;-79
2022/05/13 07:01:27;;;;;;;5.40;4.05;;;;;;;;;;5040400;28;20205;-77
2022/05/13 07:03:55;;;;;;;5.68;3.80;;;;;;;;;;5050819;28;20212;-76
2022/05/13 07:06:22;;;;;;;5.43;3.70;;;;;;;;;;5052142;28;20213;-77
2022/05/13 07:08:50;;;;;;;4.60;3.67;;;;;;;;;;5048919;28;20221;-76
2022/05/13 07:11:18;;;;;;;4.88;3.38;;;;;;;;;;5048013;28;20253;-75
2022/05/13 07:13:47;;;;;;;4.28;3.00;;;;;;;;;;5047765;28;20219;-76
2022/05/13 07:16:14;;;;;;;6.45;3.33;;;;;;;;;;5049373;28;20205;-76
2022/05/13 07:18:42;;;;;;;6.10;3.35;;;;;;;;;;5052085;28;20222;-79
2022/05/13 07:21:09;;;;;;;4.80;2.80;;;;;;;;;;5052242;28;20574;-76
2022/05/13 07:23:37;;;;;;;4.47;2.95;;;;;;;;;;5050129;28;20209;-76
2022/05/13 07:26:04;;;;;;;4.50;2.92;;;;;;;;;;5049341;28;20270;-76
2022/05/13 07:28:31;;;;;;;4.85;3.05;;;;;;;;;;5049745;28;20225;-76
2022/05/13 07:31:01;;;;;;;5.15;3.22;;;;;;;;;;5048873;28;20221;-76
2022/05/13 07:33:30;;;;;;;7.40;3.35;;;;;;;;;;5039653;28;20204;-76
2022/05/13 07:35:58;;;;;;;5.10;3.00;;;;;;;;;;5049729;28;20209;-77
2022/05/13 07:38:27;;;;;;;6.72;3.35;;;;;;;;;;5047875;28;20229;-76
2022/05/13 07:43:39;;;;;;;5.10;2.92;;;;;;;;;;5049998;28;20199;-74
2022/05/13 07:46:08;;;;;;;3.38;3.08;;;;;;;;;;5050834;28;20201;-75
2022/05/13 07:48:36;;;;;;;5.38;2.95;;;;;;;;;;5068484;22;20277;-80
2022/05/13 07:51:03;;;;;;;4.55;3.05;;;;;;;;;;5052213;28;20221;-74
2022/05/13 07:53:30;;;;;;;3.70;2.95;;;;;;;;;;5042384;28;20197;-71
2022/05/13 07:55:58;;;;;;;6.20;3.13;;;;;;;;;;5048220;28;20636;-74
2022/05/13 07:58:25;;;;;;;6.40;3.00;;;;;;;;;;5050620;28;20259;-75
2022/05/13 08:00:54;;;;;;;5.93;3.00;;;;;;;;;;5045221;28;20200;-75
2022/05/13 08:03:32;;;;;;;6.28;2.78;;;;;;;;;;5046162;28;20212;-81
2022/05/13 08:06:04;;;;;;;5.20;2.80;;;;;;;;;;5041209;28;20228;-75
2022/05/13 08:08:33;;;;;;;5.88;2.72;;;;;;;;;;5041822;28;20781;-75
2022/05/13 08:11:01;;;;;;;6.50;2.90;;;;;;;;;;5041303;28;20232;-75
2022/05/13 08:13:34;;;;;;;4.78;3.00;;;;;;;;;;5037864;28;20201;-75
2022/05/13 08:16:02;;;;;;;6.75;2.60;;;;;;;;;;5044066;28;20209;-77
2022/05/13 08:18:30;;;;;;;4.85;2.50;;;;;;;;;;5039264;28;20239;-77
2022/05/13 08:20:58;;;;;;;3.67;2.58;;;;;;;;;;5039074;28;20259;-76
2022/05/13 08:23:34;;;;;;;4.15;2.08;;;;;;;;;;5038887;28;20197;-76
2022/05/13 08:26:02;;;;;;;4.97;2.63;;;;;;;;;;5038157;28;20240;-76
2022/05/13 08:28:29;;;;;;;5.57;2.72;;;;;;;;;;5045620;28;20213;-75
2022/05/13 08:30:56;;;;;;;5.10;2.80;;;;;;;;;;5037390;28;20224;-75
2022/05/13 08:33:26;;;;;;;5.25;2.80;;;;;;;;;;5043722;28;20206;-77
2022/05/13 08:35:57;;;;;;;6.07;2.85;;;;;;;;;;5044166;28;20704;-77
2022/05/13 08:38:25;;;;;;;5.53;2.70;;;;;;;;;;5047850;28;20304;-76
2022/05/13 08:41:07;;;;;;;4.88;2.85;;;;;;;;;;5044422;28;20206;-74
2022/05/13 08:43:36;;;;;;;7.05;2.95;;;;;;;;;;5034812;28;20201;-74
2022/05/13 08:46:07;;;;;;;6.05;2.75;;;;;;;;;;5047998;28;20216;-74
2022/05/13 08:48:37;;;;;;;6.22;2.97;;;;;;;;;;5052239;28;20228;-73
2022/05/13 08:51:12;;;;;;;4.32;2.50;;;;;;;;;;5049695;28;20226;-80
2022/05/13 08:53:45;;;;;;;8.15;2.88;;;;;;;;;;5044215;28;20204;-82
2022/05/13 08:56:20;;;;;;;4.97;2.45;;;;;;;;;;5051358;28;20201;-79
2022/05/13 08:58:53;;;;;;;6.63;3.03;;;;;;;;;;5057445;28;20208;-79
2022/05/13 09:01:25;;;;;;;6.18;3.22;;;;;;;;;;5054294;28;20206;-76
2022/05/13 09:03:54;;;;;;;6.65;3.10;;;;;;;;;;5050616;28;20692;-80
2022/05/13 09:06:29;;;;;;;8.15;3.00;;;;;;;;;;5053230;28;20209;-79
2022/05/13 09:08:56;;;;;;;6.55;2.78;;;;;;;;;;5054057;28;20232;-76
2022/05/13 09:11:29;;;;;;;5.15;3.20;;;;;;;;;;5048210;28;20225;-74
2022/05/13 09:14:00;;;;;;;5.15;2.83;;;;;;;;;;5043782;28;20228;-74
2022/05/13 09:16:36;;;;;;;7.15;2.67;;;;;;;;;;5037497;28;20221;-74
2022/05/13 09:19:04;;;;;;;3.65;2.30;;;;;;;;;;5053507;28;20229;-74
2022/05/13 09:21:34;;;;;;;6.43;2.60;;;;;;;;;;5051200;28;20201;-74
2022/05/13 09:24:02;;;;;;;3.97;2.47;;;;;;;;;;5052875;28;20209;-74
2022/05/13 09:26:29;;;;;;;5.00;2.75;;;;;;;;;;5052021;28;20209;-74
2022/05/13 09:29:04;;;;;;;4.20;2.28;;;;;;;;;;5047898;28;20237;-74
2022/05/13 09:31:33;;;;;;;6.55;2.55;;;;;;;;;;5052640;28;20285;-74
2022/05/13 09:34:00;;;;;;;5.32;2.45;;;;;;;;;;5052404;28;20209;-78
2022/05/13 09:36:32;;;;;;;4.38;2.45;;;;;;;;;;5053478;28;20209;-74
2022/05/13 09:39:02;;;;;;;8.20;2.70;;;;;;;;;;5052805;28;20323;-77
2022/05/13 09:41:31;;;;;;;5.50;2.42;;;;;;;;;;5052578;28;20213;-75
2022/05/13 09:44:04;;;;;;;7.40;2.60;;;;;;;;;;5047790;28;20198;-75
2022/05/13 09:46:34;;;;;;;4.13;2.30;;;;;;;;;;5039915;28;20228;-75
2022/05/13 09:49:06;;;;;;;9.50;2.45;;;;;;;;;;5048728;28;20319;-75
2022/05/13 09:51:35;;;;;;;2.63;2.20;;;;;;;;;;5049029;28;20251;-75
2022/05/13 09:54:08;;;;;;;3.88;2.35;;;;;;;;;;5052783;28;20201;-78
2022/05/13 09:56:37;;;;;;;6.45;2.88;;;;;;;;;;5054583;28;20205;-77
2022/05/13 09:59:14;;;;;;;5.00;2.42;;;;;;;;;;5050917;28;20217;-76
2022/05/13 10:01:49;;;;;;;3.13;1.98;;;;;;;;;;5052336;28;20201;-76
2022/05/13 10:04:23;;;;;;;4.55;2.45;;;;;;;;;;5051905;28;20228;-77
2022/05/13 10:06:50;;;;;;;3.03;2.30;;;;;;;;;;5046760;28;20249;-79
2022/05/13 10:15:14;;;;;;;5.70;2.80;;;;;;;;;;5048132;28;20239;-76
2022/05/13 10:17:47;;;;;;;5.40;2.78;;;;;;;;;;5053252;28;20216;-73
2022/05/13 10:20:25;;;;;;;3.38;2.42;;;;;;;;;;5046066;28;20731;-74
2022/05/13 10:22:55;;;;;;;5.40;2.70;;;;;;;;;;5049760;28;20211;-74
2022/05/13 10:25:27;;;;;;;5.35;2.65;;;;;;;;;;5048100;28;20239;-74
2022/05/13 10:27:57;;;;;;;5.57;2.92;;;;;;;;;;5045593;28;20220;-73
2022/05/13 10:30:30;;;;;;;4.68;2.92;;;;;;;;;;5046945;28;20288;-74
2022/05/13 10:33:00;;;;;;;4.13;2.50;;;;;;;;;;5050959;28;20217;-75
2022/05/13 10:35:34;;;;;;;5.80;3.10;;;;;;;;;;5050945;28;20201;-82
2022/05/13 10:38:10;;;;;;;5.15;2.88;;;;;;;;;;5044000;28;20232;-77
2022/05/13 10:40:42;;;;;;;5.57;3.05;;;;;;;;;;5048776;28;20279;-76
2022/05/13 10:43:22;;;;;;;5.75;2.63;;;;;;;;;;5039353;28;20202;-78
2022/05/13 10:45:50;;;;;;;6.70;3.17;;;;;;;;;;5040391;28;20212;-76
2022/05/13 10:48:26;;;;;;;4.03;3.00;;;;;;;;;;5042945;28;20232;-76
2022/05/13 10:51:02;;;;;;;5.72;3.00;;;;;;;;;;5044307;28;20255;-76
2022/05/13 10:53:41;;;;;;;4.93;3.10;;;;;;;;;;5039545;28;20197;-75
2022/05/13 10:56:15;;;;;;;5.07;3.10;;;;;;;;;;5037552;28;20233;-76
2022/05/13 10:58:46;;;;;;;5.75;3.45;;;;;;;;;;5041105;28;20323;-76
2022/05/13 11:01:23;;;;;;;4.57;2.92;;;;;;;;;;5044981;28;20237;-76
2022/05/13 11:03:59;;;;;;;5.13;3.25;;;;;;;;;;5038496;28;20293;-76
2022/05/13 11:06:51;;;;;;;5.45;3.30;;;;;;;;;;5040716;28;20212;-74
2022/05/13 11:09:28;;;;;;;5.28;3.70;;;;;;;;;;4981568;28;20261;-73
2022/05/13 11:11:58;;;;;;;4.75;3.00;;;;;;;;;;5037959;28;20224;-73
2022/05/13 11:14:46;;;;;;;5.40;3.15;;;;;;;;;;5039235;28;20198;-74
2022/05/13 11:17:22;;;;;;;4.43;3.40;;;;;;;;;;5046495;28;20197;-74
2022/05/13 11:19:59;;;;;;;5.45;3.05;;;;;;;;;;5045751;28;20212;-74
2022/05/13 11:22:34;;;;;;;5.43;3.40;;;;;;;;;;5050923;28;20208;-74
2022/05/13 11:28:01;;;;;;;5.00;3.25;;;;;;;;;;5052006;28;20343;-73
2022/05/13 11:33:30;;;;;;;3.85;3.10;;;;;;;;;;5043440;28;20255;-74
2022/05/13 11:36:12;;;;;;;4.78;2.78;;;;;;;;;;5041836;28;20251;-74
2022/05/13 11:39:00;;;;;;;4.55;2.85;;;;;;;;;;5039628;28;20388;-74
2022/05/13 11:41:52;;;;;;;4.32;2.65;;;;;;;;;;5035883;28;20240;-74
2022/05/13 11:44:28;;;;;;;4.72;2.78;;;;;;;;;;5036875;28;20202;-74
2022/05/13 11:47:09;;;;;;;3.78;2.92;;;;;;;;;;5041475;28;20223;-74
2022/05/13 11:49:56;;;;;;;5.07;3.20;;;;;;;;;;5038181;28;20283;-74
2022/05/13 11:52:47;;;;;;;5.35;3.10;;;;;;;;;;5034434;28;20224;-74
2022/05/13 11:55:24;;;;;;;4.25;2.70;;;;;;;;;;4994332;28;20207;-73
2022/05/13 11:57:55;;;;;;;5.53;2.60;;;;;;;;;;5045404;28;20236;-74
2022/05/13 12:00:37;;;;;;;4.82;2.80;;;;;;;;;;5042977;28;20193;-73
2022/05/13 12:03:08;;;;;;;4.75;3.00;;;;;;;;;;5035645;28;20341;-74
2022/05/13 12:05:57;;;;;;;5.10;3.33;;;;;;;;;;5040323;28;20194;-73
2022/05/13 12:08:31;;;;;;;5.80;3.03;;;;;;;;;;5040652;28;20225;-73
2022/05/13 12:11:08;;;;;;;4.38;2.90;;;;;;;;;;5042811;28;20212;-74
2022/05/13 12:13:40;;;;;;;6.18;3.03;;;;;;;;;;5041454;28;20271;-77
2022/05/13 12:16:17;;;;;;;4.80;2.83;;;;;;;;;;5037327;28;20201;-75
2022/05/13 12:18:48;;;;;;;6.55;2.88;;;;;;;;;;5041133;28;20750;-75
2022/05/13 12:21:23;;;;;;;6.10;2.65;;;;;;;;;;5039169;28;20255;-74
2022/05/13 12:23:54;;;;;;;6.72;2.42;;;;;;;;;;5042386;28;20270;-74
2022/05/13 12:26:25;;;;;;;4.30;2.60;;;;;;;;;;5038010;28;20209;-77
2022/05/13 12:29:12;;;;;;;4.13;2.60;;;;;;;;;;5040537;28;20248;-75
2022/05/13 12:31:55;;;;;;;6.32;2.83;;;;;;;;;;5040485;28;20271;-75
2022/05/13 12:40:01;;;;;;;5.50;2.78;;;;;;;;;;5037193;28;20196;-74
2022/05/13 12:42:41;;;;;;;5.35;2.80;;;;;;;;;;5040034;28;20240;-74
2022/05/13 12:45:21;;;;;;;3.30;2.67;;;;;;;;;;5035172;28;20220;-75
2022/05/13 12:48:15;;;;;;;4.10;2.50;;;;;;;;;;5044592;28;20304;-75
2022/05/13 12:50:53;;;;;;;2.90;2.22;;;;;;;;;;5044007;28;20216;-75
2022/05/13 12:53:50;;;;;;;3.65;2.47;;;;;;;;;;5037729;28;20217;-76
2022/05/13 12:56:30;;;;;;;4.55;2.70;;;;;;;;;;5043724;28;20210;-75
2022/05/13 12:59:02;;;;;;;4.65;2.90;;;;;;;;;;5046612;28;20264;-76
2022/05/13 13:01:33;;;;;;;5.15;2.60;;;;;;;;;;5048989;28;20205;-75
2022/05/13 13:04:02;;;;;;;3.72;2.35;;;;;;;;;;5050054;28;20272;-79
2022/05/13 13:06:38;;;;;;;3.42;2.30;;;;;;;;;;5053154;28;20228;-77
2022/05/13 13:09:05;;;;;;;2.50;2.30;;;;;;;;;;5047214;28;20221;-73
2022/05/13 13:11:35;;;;;;;5.03;2.83;;;;;;;;;;5049184;28;20221;-74
2022/05/13 13:14:14;;;;;;;4.22;2.35;;;;;;;;;;5043540;28;20293;-75
2022/05/13 13:16:43;;;;;;;4.43;2.47;;;;;;;;;;5043076;28;20193;-75
2022/05/13 13:19:14;;;;;;;5.15;2.83;;;;;;;;;;5050948;28;20241;-73
2022/05/13 13:21:42;;;;;;;4.30;2.20;;;;;;;;;;5053730;28;20233;-73
2022/05/13 13:24:13;;;;;;;3.05;1.77;;;;;;;;;;5051846;28;20251;-74
2022/05/13 13:26:42;;;;;;;4.43;2.22;;;;;;;;;;5052633;28;20205;-73
2022/05/13 13:29:11;;;;;;;3.53;2.20;;;;;;;;;;5049821;28;20312;-72
2022/05/13 13:31:41;;;;;;;3.38;2.28;;;;;;;;;;5053458;28;20198;-75
2022/05/13 13:34:22;;;;;;;2.70;2.00;;;;;;;;;;5054579;28;20209;-77
2022/05/13 13:36:51;;;;;;;3.22;2.20;;;;;;;;;;5047393;28;20220;-80
2022/05/13 13:39:19;;;;;;;4.53;2.47;;;;;;;;;;5050343;28;20213;-75
2022/05/13 13:41:59;;;;;;;3.75;2.15;;;;;;;;;;5048080;28;20197;-77
2022/05/13 13:44:29;;;;;;;2.75;1.90;;;;;;;;;;5047587;28;20205;-81
2022/05/13 13:46:57;;;;;;;4.22;2.65;;;;;;;;;;5052486;28;20205;-75
2022/05/13 13:49:27;;;;;;;3.67;1.90;;;;;;;;;;5065194;22;20666;-75
2022/05/13 13:51:58;;;;;;;3.90;2.00;;;;;;;;;;5049500;28;20198;-74
2022/05/13 13:54:28;;;;;;;3.30;1.92;;;;;;;;;;5051771;28;20252;-75
2022/05/13 13:57:02;;;;;;;3.40;2.10;;;;;;;;;;5042257;28;20615;-75
2022/05/13 13:59:33;;;;;;;2.78;1.73;;;;;;;;;;5059594;28;20592;-76
2022/05/13 14:02:01;;;;;;;3.58;1.67;;;;;;;;;;5052235;28;20233;-75
2022/05/13 14:04:29;;;;;;;2.60;1.73;;;;;;;;;;5052010;28;20208;-76
2022/05/13 14:06:59;;;;;;;3.25;1.70;;;;;;;;;;5052485;28;20224;-75
2022/05/13 14:09:29;;;;;;;3.92;2.60;;;;;;;;;;5052076;28;20217;-76
2022/05/13 14:11:58;;;;;;;3.33;2.20;;;;;;;;;;5052893;28;20300;-76
2022/05/13 14:14:26;;;;;;;2.50;1.70;;;;;;;;;;5051610;28;20212;-75
2022/05/13 14:16:55;;;;;;;4.25;3.85;;;;;;;;;;5052590;28;20209;-75
2022/05/13 14:19:25;;;;;;;4.10;1.98;;;;;;;;;;5052601;28;20221;-76
2022/05/13 14:21:57;;;;;;;3.17;2.13;;;;;;;;;;5052317;28;20280;-76
2022/05/13 14:24:33;;;;;;;3.30;1.90;;;;;;;;;;5052081;28;20556;-76
2022/05/13 14:27:01;;;;;;;3.38;1.92;;;;;;;;;;5052865;28;20243;-76
2022/05/13 14:29:32;;;;;;;3.45;2.28;;;;;;;;;;5052264;28;20232;-76
2022/05/13 14:32:10;;;;;;;2.65;1.77;;;;;;;;;;5051786;28;20211;-75
2022/05/13 14:34:38;;;;;;;2.20;1.60;;;;;;;;;;5051773;28;20197;-76
2022/05/13 14:37:07;;;;;;;2.22;1.73;;;;;;;;;;5051838;28;20232;-76
2022/05/13 14:39:52;;;;;;;3.50;1.70;;;;;;;;;;5052374;28;20248;-76
2022/05/13 14:42:23;;;;;;;2.88;1.95;;;;;;;;;;5053419;28;20217;-76
2022/05/13 14:44:52;;;;;;;5.13;1.67;;;;;;;;;;5052156;28;20213;-80
2022/05/13 14:47:30;;;;;;;3.47;1.70;;;;;;;;;;5052135;28;20197;-79
2022/05/13 14:49:58;;;;;;;2.63;1.90;;;;;;;;;;5050666;28;20312;-76
2022/05/13 14:52:27;;;;;;;3.97;2.30;;;;;;;;;;5052570;28;20208;-79
2022/05/13 14:54:56;;;;;;;2.85;1.50;;;;;;;;;;5049207;28;20741;-77
2022/05/13 14:57:24;;;;;;;3.97;1.95;;;;;;;;;;5049722;28;20280;-77
2022/05/13 14:59:56;;;;;;;2.72;1.40;;;;;;;;;;5046798;28;20227;-77
2022/05/13 15:02:29;;;;;;;2.90;1.80;;;;;;;;;;5050306;28;20247;-77
2022/05/13 15:04:58;;;;;;;2.08;1.20;;;;;;;;;;5049112;28;20232;-76
2022/05/13 15:07:37;;;;;;;3.70;1.58;;;;;;;;;;5051360;28;20197;-76
2022/05/13 15:10:06;;;;;;;3.25;1.70;;;;;;;;;;5049309;28;20201;-76
2022/05/13 15:12:34;;;;;;;1.95;1.10;;;;;;;;;;5049928;28;20616;-78
2022/05/13 15:15:01;;;;;;;2.33;1.40;;;;;;;;;;5047069;28;20228;-76
2022/05/13 15:17:28;;;;;;;1.98;1.40;;;;;;;;;;5048675;28;20229;-77
2022/05/13 15:19:55;;;;;;;2.75;1.70;;;;;;;;;;5048026;28;20217;-76
2022/05/13 15:22:27;;;;;;;3.00;1.80;;;;;;;;;;5052506;28;20201;-76
2022/05/13 15:24:54;;;;;;;3.33;1.90;;;;;;;;;;5048343;28;20200;-78
2022/05/13 15:27:25;;;;;;;3.13;1.73;;;;;;;;;;5050011;28;20291;-76
2022/05/13 15:29:53;;;;;;;2.35;1.55;;;;;;;;;;5050849;28;20221;-76
2022/05/13 15:32:22;;;;;;;2.83;1.50;;;;;;;;;;5050804;28;20602;-76